sim
Sign-in with your pilot id or email,
or register
Callsign
Passwort

Schedule Details

Flight Number: UAE9889 (A)
Departure: Shanghai Pudong International Airport (ZSPD) at 22:40
Arrival: Mumbai Chhatrapati Shivaji International Airport (VABB) at 05:55
Route: Emirates Cargo Schedule. Enter filed route here before submitting Pirep.

Weather Information
Getting current METAR information for ZSPD 191800Z 05004MPS 360V090 CAVOK 27/22 Q1008 NOSIG
Getting current METAR information for VABB 191800Z 27007KT 3500 HZ SCT020 28/25 Q1010 NOSIG

Schedule Frequency

Route Map